sensor_id;sensor_type;location;lat;lon;timestamp;temperature;humidity
67192;HTU21D;54120;53.504;49.426;2023-03-07T00:00:51;-5.40;93.55
67192;HTU21D;54120;53.504;49.426;2023-03-07T00:03:17;-5.41;93.78
67192;HTU21D;54120;53.504;49.426;2023-03-07T00:05:45;-5.42;93.63
67192;HTU21D;54120;53.504;49.426;2023-03-07T00:08:11;-5.53;93.53
67192;HTU21D;54120;53.504;49.426;2023-03-07T00:10:37;-5.64;93.48
67192;HTU21D;54120;53.504;49.426;2023-03-07T00:13:03;-5.71;93.52
67192;HTU21D;54120;53.504;49.426;2023-03-07T00:15:30;-5.71;93.92
67192;HTU21D;54120;53.504;49.426;2023-03-07T00:17:57;-5.68;93.91
67192;HTU21D;54120;53.504;49.426;2023-03-07T00:20:22;-5.68;93.87
67192;HTU21D;54120;53.504;49.426;2023-03-07T00:22:48;-5.71;93.66
67192;HTU21D;54120;53.504;49.426;2023-03-07T00:25:14;-5.77;93.70
67192;HTU21D;54120;53.504;49.426;2023-03-07T00:27:41;-5.83;93.62
67192;HTU21D;54120;53.504;49.426;2023-03-07T00:30:07;-5.86;93.73
67192;HTU21D;54120;53.504;49.426;2023-03-07T00:32:34;-5.88;93.83
67192;HTU21D;54120;53.504;49.426;2023-03-07T00:35:01;-5.92;93.58
67192;HTU21D;54120;53.504;49.426;2023-03-07T00:37:27;-6.04;93.46
67192;HTU21D;54120;53.504;49.426;2023-03-07T00:39:55;-6.16;93.39
67192;HTU21D;54120;53.504;49.426;2023-03-07T00:42:21;-6.26;93.54
67192;HTU21D;54120;53.504;49.426;2023-03-07T00:44:47;-6.28;93.86
67192;HTU21D;54120;53.504;49.426;2023-03-07T00:47:13;-6.31;93.86
67192;HTU21D;54120;53.504;49.426;2023-03-07T00:49:39;-6.32;93.91
67192;HTU21D;54120;53.504;49.426;2023-03-07T00:52:05;-6.32;93.92
67192;HTU21D;54120;53.504;49.426;2023-03-07T00:54:31;-6.30;94.00
67192;HTU21D;54120;53.504;49.426;2023-03-07T00:56:57;-6.33;93.88
67192;HTU21D;54120;53.504;49.426;2023-03-07T00:59:23;-6.34;93.65
67192;HTU21D;54120;53.504;49.426;2023-03-07T01:01:48;-6.37;93.68
67192;HTU21D;54120;53.504;49.426;2023-03-07T01:04:15;-6.38;93.41
67192;HTU21D;54120;53.504;49.426;2023-03-07T01:06:41;-6.42;93.20
67192;HTU21D;54120;53.504;49.426;2023-03-07T01:09:07;-6.58;93.13
67192;HTU21D;54120;53.504;49.426;2023-03-07T01:11:34;-6.59;93.62
67192;HTU21D;54120;53.504;49.426;2023-03-07T01:14:02;-6.71;93.49
67192;HTU21D;54120;53.504;49.426;2023-03-07T01:16:32;-6.76;93.50
67192;HTU21D;54120;53.504;49.426;2023-03-07T01:19:04;-6.77;93.82
67192;HTU21D;54120;53.504;49.426;2023-03-07T01:21:38;-6.78;94.15
67192;HTU21D;54120;53.504;49.426;2023-03-07T01:24:07;-6.83;94.19
67192;HTU21D;54120;53.504;49.426;2023-03-07T01:26:33;-6.89;94.14
67192;HTU21D;54120;53.504;49.426;2023-03-07T01:29:02;-6.83;94.41
67192;HTU21D;54120;53.504;49.426;2023-03-07T01:31:28;-6.83;94.13
67192;HTU21D;54120;53.504;49.426;2023-03-07T01:33:55;-6.89;94.31
67192;HTU21D;54120;53.504;49.426;2023-03-07T01:36:32;-6.85;94.40
67192;HTU21D;54120;53.504;49.426;2023-03-07T01:39:01;-6.92;94.20
67192;HTU21D;54120;53.504;49.426;2023-03-07T01:41:35;-6.88;94.42
67192;HTU21D;54120;53.504;49.426;2023-03-07T01:44:03;-6.81;94.27
67192;HTU21D;54120;53.504;49.426;2023-03-07T01:49:40;-6.83;94.04
67192;HTU21D;54120;53.504;49.426;2023-03-07T01:52:21;-6.87;94.14
67192;HTU21D;54120;53.504;49.426;2023-03-07T01:54:51;-6.86;94.16
67192;HTU21D;54120;53.504;49.426;2023-03-07T01:57:20;-6.85;94.14
67192;HTU21D;54120;53.504;49.426;2023-03-07T01:59:49;-6.80;94.12
67192;HTU21D;54120;53.504;49.426;2023-03-07T02:02:18;-6.86;94.05
67192;HTU21D;54120;53.504;49.426;2023-03-07T02:04:56;-6.85;93.95
67192;HTU21D;54120;53.504;49.426;2023-03-07T02:07:27;-6.79;93.70
67192;HTU21D;54120;53.504;49.426;2023-03-07T02:09:56;-6.81;93.47
67192;HTU21D;54120;53.504;49.426;2023-03-07T02:12:23;-6.73;93.40
67192;HTU21D;54120;53.504;49.426;2023-03-07T02:14:50;-6.71;93.24
67192;HTU21D;54120;53.504;49.426;2023-03-07T02:17:16;-6.73;92.90
67192;HTU21D;54120;53.504;49.426;2023-03-07T02:22:30;-6.66;92.82
67192;HTU21D;54120;53.504;49.426;2023-03-07T02:25:04;-6.71;92.72
67192;HTU21D;54120;53.504;49.426;2023-03-07T02:27:33;-6.66;92.65
67192;HTU21D;54120;53.504;49.426;2023-03-07T02:30:01;-6.71;92.59
67192;HTU21D;54120;53.504;49.426;2023-03-07T02:32:28;-6.61;92.76
67192;HTU21D;54120;53.504;49.426;2023-03-07T02:34:54;-6.61;92.69
67192;HTU21D;54120;53.504;49.426;2023-03-07T02:37:25;-6.59;92.30
67192;HTU21D;54120;53.504;49.426;2023-03-07T02:39:53;-6.51;92.33
67192;HTU21D;54120;53.504;49.426;2023-03-07T02:42:24;-6.50;92.03
67192;HTU21D;54120;53.504;49.426;2023-03-07T02:44:58;-6.48;92.16
67192;HTU21D;54120;53.504;49.426;2023-03-07T02:47:26;-6.56;91.82
67192;HTU21D;54120;53.504;49.426;2023-03-07T02:49:52;-6.66;91.72
67192;HTU21D;54120;53.504;49.426;2023-03-07T02:52:19;-6.72;91.62
67192;HTU21D;54120;53.504;49.426;2023-03-07T02:54:46;-6.82;91.83
67192;HTU21D;54120;53.504;49.426;2023-03-07T02:57:13;-6.83;92.07
67192;HTU21D;54120;53.504;49.426;2023-03-07T02:59:39;-6.88;92.14
67192;HTU21D;54120;53.504;49.426;2023-03-07T03:02:05;-6.91;92.25
67192;HTU21D;54120;53.504;49.426;2023-03-07T03:04:31;-6.89;92.70
67192;HTU21D;54120;53.504;49.426;2023-03-07T03:06:57;-6.85;92.59
67192;HTU21D;54120;53.504;49.426;2023-03-07T03:09:24;-6.86;92.69
67192;HTU21D;54120;53.504;49.426;2023-03-07T03:11:50;-6.81;92.75
67192;HTU21D;54120;53.504;49.426;2023-03-07T03:14:16;-6.73;92.86
67192;HTU21D;54120;53.504;49.426;2023-03-07T03:16:42;-6.71;92.58
67192;HTU21D;54120;53.504;49.426;2023-03-07T03:19:08;-6.70;92.18
67192;HTU21D;54120;53.504;49.426;2023-03-07T03:21:34;-6.70;92.17
67192;HTU21D;54120;53.504;49.426;2023-03-07T03:24:05;-6.65;92.00
67192;HTU21D;54120;53.504;49.426;2023-03-07T03:26:32;-6.20;92.40
67192;HTU21D;54120;53.504;49.426;2023-03-07T03:28:58;-5.10;90.58
67192;HTU21D;54120;53.504;49.426;2023-03-07T03:31:24;-4.02;85.37
67192;HTU21D;54120;53.504;49.426;2023-03-07T03:33:51;-3.04;79.31
67192;HTU21D;54120;53.504;49.426;2023-03-07T03:36:18;-2.05;73.03
67192;HTU21D;54120;53.504;49.426;2023-03-07T03:38:44;-1.41;70.87
67192;HTU21D;54120;53.504;49.426;2023-03-07T03:41:11;-0.62;66.57
67192;HTU21D;54120;53.504;49.426;2023-03-07T03:43:38;-0.02;64.50
67192;HTU21D;54120;53.504;49.426;2023-03-07T03:46:04;0.51;61.80
67192;HTU21D;54120;53.504;49.426;2023-03-07T03:48:31;1.24;59.71
67192;HTU21D;54120;53.504;49.426;2023-03-07T03:51:05;1.58;56.70
67192;HTU21D;54120;53.504;49.426;2023-03-07T03:53:33;1.99;57.20
67192;HTU21D;54120;53.504;49.426;2023-03-07T03:56:17;2.51;54.73
67192;HTU21D;54120;53.504;49.426;2023-03-07T03:58:46;2.91;52.46
67192;HTU21D;54120;53.504;49.426;2023-03-07T04:01:12;3.25;51.27
67192;HTU21D;54120;53.504;49.426;2023-03-07T04:03:41;3.80;49.63
67192;HTU21D;54120;53.504;49.426;2023-03-07T04:06:10;4.47;47.22
67192;HTU21D;54120;53.504;49.426;2023-03-07T04:08:36;4.95;46.36
67192;HTU21D;54120;53.504;49.426;2023-03-07T04:11:03;5.28;45.35
67192;HTU21D;54120;53.504;49.426;2023-03-07T04:13:32;5.98;42.93
67192;HTU21D;54120;53.504;49.426;2023-03-07T04:15:58;6.30;42.23
67192;HTU21D;54120;53.504;49.426;2023-03-07T04:18:24;6.40;42.27
67192;HTU21D;54120;53.504;49.426;2023-03-07T04:20:51;6.76;40.72
67192;HTU21D;54120;53.504;49.426;2023-03-07T04:23:18;7.03;39.79
67192;HTU21D;54120;53.504;49.426;2023-03-07T04:25:49;7.02;40.20
67192;HTU21D;54120;53.504;49.426;2023-03-07T04:28:16;7.47;38.41
67192;HTU21D;54120;53.504;49.426;2023-03-07T04:30:43;7.67;38.53
67192;HTU21D;54120;53.504;49.426;2023-03-07T04:33:09;8.35;37.69
67192;HTU21D;54120;53.504;49.426;2023-03-07T04:35:35;8.91;35.34
67192;HTU21D;54120;53.504;49.426;2023-03-07T04:38:01;9.16;35.72
67192;HTU21D;54120;53.504;49.426;2023-03-07T04:40:27;8.73;35.96
67192;HTU21D;54120;53.504;49.426;2023-03-07T04:42:53;9.01;34.95
67192;HTU21D;54120;53.504;49.426;2023-03-07T04:45:19;9.12;34.45
67192;HTU21D;54120;53.504;49.426;2023-03-07T04:47:45;9.53;33.92
67192;HTU21D;54120;53.504;49.426;2023-03-07T04:50:11;10.08;32.80
67192;HTU21D;54120;53.504;49.426;2023-03-07T04:52:37;9.57;33.34
67192;HTU21D;54120;53.504;49.426;2023-03-07T04:55:03;9.09;34.64
67192;HTU21D;54120;53.504;49.426;2023-03-07T04:57:29;9.33;33.99
67192;HTU21D;54120;53.504;49.426;2023-03-07T04:59:55;9.36;34.33
67192;HTU21D;54120;53.504;49.426;2023-03-07T05:02:21;9.95;32.60
67192;HTU21D;54120;53.504;49.426;2023-03-07T05:04:47;9.22;33.76
67192;HTU21D;54120;53.504;49.426;2023-03-07T05:07:13;9.83;32.82
67192;HTU21D;54120;53.504;49.426;2023-03-07T05:09:39;9.83;32.42
67192;HTU21D;54120;53.504;49.426;2023-03-07T05:12:05;10.37;31.29
67192;HTU21D;54120;53.504;49.426;2023-03-07T05:14:31;9.95;32.60
67192;HTU21D;54120;53.504;49.426;2023-03-07T05:16:57;10.19;31.41
67192;HTU21D;54120;53.504;49.426;2023-03-07T05:19:23;9.52;33.47
67192;HTU21D;54120;53.504;49.426;2023-03-07T05:21:49;9.77;32.35
67192;HTU21D;54120;53.504;49.426;2023-03-07T05:24:15;8.76;34.68
67192;HTU21D;54120;53.504;49.426;2023-03-07T05:26:41;9.09;34.26
67192;HTU21D;54120;53.504;49.426;2023-03-07T05:29:07;10.39;31.57
67192;HTU21D;54120;53.504;49.426;2023-03-07T05:31:33;10.92;30.03
67192;HTU21D;54120;53.504;49.426;2023-03-07T05:33:59;10.67;30.42
67192;HTU21D;54120;53.504;49.426;2023-03-07T05:36:25;10.44;31.01
67192;HTU21D;54120;53.504;49.426;2023-03-07T05:38:51;10.99;29.95
67192;HTU21D;54120;53.504;49.426;2023-03-07T05:41:19;11.01;29.75
67192;HTU21D;54120;53.504;49.426;2023-03-07T05:43:45;10.83;29.81
67192;HTU21D;54120;53.504;49.426;2023-03-07T05:46:11;11.33;29.11
67192;HTU21D;54120;53.504;49.426;2023-03-07T05:48:37;10.90;29.93
67192;HTU21D;54120;53.504;49.426;2023-03-07T05:51:03;11.25;29.34
67192;HTU21D;54120;53.504;49.426;2023-03-07T05:53:30;11.77;28.53
67192;HTU21D;54120;53.504;49.426;2023-03-07T05:55:56;11.90;28.04
67192;HTU21D;54120;53.504;49.426;2023-03-07T05:58:22;12.36;26.99
67192;HTU21D;54120;53.504;49.426;2023-03-07T06:00:48;12.05;27.52
67192;HTU21D;54120;53.504;49.426;2023-03-07T06:03:14;11.33;28.47
67192;HTU21D;54120;53.504;49.426;2023-03-07T06:05:40;10.50;30.52
67192;HTU21D;54120;53.504;49.426;2023-03-07T06:08:06;11.30;29.72
67192;HTU21D;54120;53.504;49.426;2023-03-07T06:10:32;12.12;27.43
67192;HTU21D;54120;53.504;49.426;2023-03-07T06:12:59;12.48;26.44
67192;HTU21D;54120;53.504;49.426;2023-03-07T06:15:25;13.21;25.56
67192;HTU21D;54120;53.504;49.426;2023-03-07T06:17:51;13.27;25.68
67192;HTU21D;54120;53.504;49.426;2023-03-07T06:20:20;13.11;25.39
67192;HTU21D;54120;53.504;49.426;2023-03-07T06:22:46;12.78;26.30
67192;HTU21D;54120;53.504;49.426;2023-03-07T06:25:12;12.71;26.50
67192;HTU21D;54120;53.504;49.426;2023-03-07T06:27:40;13.25;25.67
67192;HTU21D;54120;53.504;49.426;2023-03-07T06:30:06;13.09;25.41
67192;HTU21D;54120;53.504;49.426;2023-03-07T06:32:33;12.30;27.12
67192;HTU21D;54120;53.504;49.426;2023-03-07T06:34:59;11.79;27.62
67192;HTU21D;54120;53.504;49.426;2023-03-07T06:37:26;11.31;29.19
67192;HTU21D;54120;53.504;49.426;2023-03-07T06:39:52;10.95;29.34
67192;HTU21D;54120;53.504;49.426;2023-03-07T06:42:18;11.16;29.05
67192;HTU21D;54120;53.504;49.426;2023-03-07T06:44:44;10.85;29.75
67192;HTU21D;54120;53.504;49.426;2023-03-07T06:47:10;10.72;30.42
67192;HTU21D;54120;53.504;49.426;2023-03-07T06:49:36;11.61;28.71
67192;HTU21D;54120;53.504;49.426;2023-03-07T06:52:02;12.14;28.05
67192;HTU21D;54120;53.504;49.426;2023-03-07T06:54:28;12.63;26.52
67192;HTU21D;54120;53.504;49.426;2023-03-07T06:56:54;11.63;28.36
67192;HTU21D;54120;53.504;49.426;2023-03-07T06:59:20;12.71;26.97
67192;HTU21D;54120;53.504;49.426;2023-03-07T07:01:46;12.56;26.52
67192;HTU21D;54120;53.504;49.426;2023-03-07T07:04:13;11.96;27.32
67192;HTU21D;54120;53.504;49.426;2023-03-07T07:06:39;11.72;28.48
67192;HTU21D;54120;53.504;49.426;2023-03-07T07:09:05;12.67;25.97
67192;HTU21D;54120;53.504;49.426;2023-03-07T07:11:31;12.55;26.49
67192;HTU21D;54120;53.504;49.426;2023-03-07T07:13:57;12.20;27.17
67192;HTU21D;54120;53.504;49.426;2023-03-07T07:16:23;12.25;27.30
67192;HTU21D;54120;53.504;49.426;2023-03-07T07:18:50;12.90;26.38
67192;HTU21D;54120;53.504;49.426;2023-03-07T07:21:19;12.79;26.79
67192;HTU21D;54120;53.504;49.426;2023-03-07T07:23:45;13.53;25.55
67192;HTU21D;54120;53.504;49.426;2023-03-07T07:26:11;14.41;24.29
67192;HTU21D;54120;53.504;49.426;2023-03-07T07:28:37;13.43;25.20
67192;HTU21D;54120;53.504;49.426;2023-03-07T07:35:16;14.18;23.80
67192;HTU21D;54120;53.504;49.426;2023-03-07T07:37:42;13.55;25.30
67192;HTU21D;54120;53.504;49.426;2023-03-07T07:40:09;13.14;26.19
67192;HTU21D;54120;53.504;49.426;2023-03-07T07:42:35;12.97;26.44
67192;HTU21D;54120;53.504;49.426;2023-03-07T07:45:01;11.88;28.51
67192;HTU21D;54120;53.504;49.426;2023-03-07T07:47:27;9.34;32.68
67192;HTU21D;54120;53.504;49.426;2023-03-07T07:49:53;6.28;40.15
67192;HTU21D;54120;53.504;49.426;2023-03-07T07:52:19;4.39;46.60
67192;HTU21D;54120;53.504;49.426;2023-03-07T07:54:45;3.70;49.09
67192;HTU21D;54120;53.504;49.426;2023-03-07T07:57:11;3.23;50.63
67192;HTU21D;54120;53.504;49.426;2023-03-07T07:59:37;3.02;51.85
67192;HTU21D;54120;53.504;49.426;2023-03-07T08:02:03;3.29;52.01
67192;HTU21D;54120;53.504;49.426;2023-03-07T08:04:29;3.25;51.75
67192;HTU21D;54120;53.504;49.426;2023-03-07T08:06:55;3.08;51.33
67192;HTU21D;54120;53.504;49.426;2023-03-07T08:09:21;2.83;52.31
67192;HTU21D;54120;53.504;49.426;2023-03-07T08:11:47;2.78;52.35
67192;HTU21D;54120;53.504;49.426;2023-03-07T08:14:13;2.98;52.17
67192;HTU21D;54120;53.504;49.426;2023-03-07T08:16:39;2.99;51.26
67192;HTU21D;54120;53.504;49.426;2023-03-07T08:19:05;2.89;51.77
67192;HTU21D;54120;53.504;49.426;2023-03-07T08:21:31;2.70;51.26
67192;HTU21D;54120;53.504;49.426;2023-03-07T08:23:57;2.28;52.92
67192;HTU21D;54120;53.504;49.426;2023-03-07T08:26:23;2.53;53.05
67192;HTU21D;54120;53.504;49.426;2023-03-07T08:28:49;2.76;51.99
67192;HTU21D;54120;53.504;49.426;2023-03-07T08:31:18;2.87;51.51
67192;HTU21D;54120;53.504;49.426;2023-03-07T08:33:48;2.65;52.21
67192;HTU21D;54120;53.504;49.426;2023-03-07T08:36:14;2.90;51.81
67192;HTU21D;54120;53.504;49.426;2023-03-07T08:38:41;2.91;51.82
67192;HTU21D;54120;53.504;49.426;2023-03-07T08:41:08;3.09;51.62
67192;HTU21D;54120;53.504;49.426;2023-03-07T08:43:35;3.25;50.55
67192;HTU21D;54120;53.504;49.426;2023-03-07T08:46:02;3.09;51.30
67192;HTU21D;54120;53.504;49.426;2023-03-07T08:48:28;3.01;51.88
67192;HTU21D;54120;53.504;49.426;2023-03-07T08:50:54;2.71;51.90
67192;HTU21D;54120;53.504;49.426;2023-03-07T08:53:21;2.37;53.59
67192;HTU21D;54120;53.504;49.426;2023-03-07T08:55:47;2.24;54.55
67192;HTU21D;54120;53.504;49.426;2023-03-07T08:58:13;2.20;54.72
67192;HTU21D;54120;53.504;49.426;2023-03-07T09:00:39;1.97;55.37
67192;HTU21D;54120;53.504;49.426;2023-03-07T09:03:05;2.13;53.56
67192;HTU21D;54120;53.504;49.426;2023-03-07T09:05:32;2.24;53.79
67192;HTU21D;54120;53.504;49.426;2023-03-07T09:08:00;2.46;54.02
67192;HTU21D;54120;53.504;49.426;2023-03-07T09:10:26;2.34;54.00
67192;HTU21D;54120;53.504;49.426;2023-03-07T09:12:52;2.29;54.43
67192;HTU21D;54120;53.504;49.426;2023-03-07T09:15:20;2.26;54.02
67192;HTU21D;54120;53.504;49.426;2023-03-07T09:17:47;2.12;54.78
67192;HTU21D;54120;53.504;49.426;2023-03-07T09:20:13;2.17;54.81
67192;HTU21D;54120;53.504;49.426;2023-03-07T09:22:43;2.26;54.22
67192;HTU21D;54120;53.504;49.426;2023-03-07T09:25:10;2.32;54.09
67192;HTU21D;54120;53.504;49.426;2023-03-07T09:27:35;2.35;54.80
67192;HTU21D;54120;53.504;49.426;2023-03-07T09:30:02;2.28;54.66
67192;HTU21D;54120;53.504;49.426;2023-03-07T09:32:31;2.31;54.33
67192;HTU21D;54120;53.504;49.426;2023-03-07T09:34:57;2.32;53.33
67192;HTU21D;54120;53.504;49.426;2023-03-07T09:37:23;2.37;55.36
67192;HTU21D;54120;53.504;49.426;2023-03-07T09:39:49;2.53;53.87
67192;HTU21D;54120;53.504;49.426;2023-03-07T09:42:19;2.49;54.36
67192;HTU21D;54120;53.504;49.426;2023-03-07T09:45:02;2.43;54.91
67192;HTU21D;54120;53.504;49.426;2023-03-07T09:48:00;2.28;54.87
67192;HTU21D;54120;53.504;49.426;2023-03-07T09:50:53;2.23;55.42
67192;HTU21D;54120;53.504;49.426;2023-03-07T09:55:58;2.65;55.11
67192;HTU21D;54120;53.504;49.426;2023-03-07T09:58:27;2.41;54.97
67192;HTU21D;54120;53.504;49.426;2023-03-07T10:00:56;2.34;56.11
67192;HTU21D;54120;53.504;49.426;2023-03-07T10:04:18;2.20;55.71
67192;HTU21D;54120;53.504;49.426;2023-03-07T10:06:29;2.02;56.06
67192;HTU21D;54120;53.504;49.426;2023-03-07T10:08:57;2.09;56.50
67192;HTU21D;54120;53.504;49.426;2023-03-07T10:11:43;2.37;56.13
67192;HTU21D;54120;53.504;49.426;2023-03-07T10:22:12;2.38;55.71
67192;HTU21D;54120;53.504;49.426;2023-03-07T10:24:51;2.43;56.36
67192;HTU21D;54120;53.504;49.426;2023-03-07T10:27:24;2.43;56.05
67192;HTU21D;54120;53.504;49.426;2023-03-07T10:29:52;2.32;56.39
67192;HTU21D;54120;53.504;49.426;2023-03-07T10:32:36;1.77;57.56
67192;HTU21D;54120;53.504;49.426;2023-03-07T10:35:15;1.62;58.07
67192;HTU21D;54120;53.504;49.426;2023-03-07T10:37:49;1.81;56.77
67192;HTU21D;54120;53.504;49.426;2023-03-07T10:40:35;1.84;56.63
67192;HTU21D;54120;53.504;49.426;2023-03-07T10:43:06;1.79;57.22
67192;HTU21D;54120;53.504;49.426;2023-03-07T10:45:33;1.92;57.03
67192;HTU21D;54120;53.504;49.426;2023-03-07T10:48:07;2.27;55.98
67192;HTU21D;54120;53.504;49.426;2023-03-07T10:50:45;1.93;56.67
67192;HTU21D;54120;53.504;49.426;2023-03-07T10:53:24;2.07;56.97
67192;HTU21D;54120;53.504;49.426;2023-03-07T10:55:51;2.31;55.66
67192;HTU21D;54120;53.504;49.426;2023-03-07T10:58:25;2.17;56.38
67192;HTU21D;54120;53.504;49.426;2023-03-07T11:03:46;2.21;55.72
67192;HTU21D;54120;53.504;49.426;2023-03-07T11:09:14;2.64;55.59
67192;HTU21D;54120;53.504;49.426;2023-03-07T11:11:54;2.68;55.80
67192;HTU21D;54120;53.504;49.426;2023-03-07T11:14:21;2.32;56.29
67192;HTU21D;54120;53.504;49.426;2023-03-07T11:16:59;2.08;56.89
67192;HTU21D;54120;53.504;49.426;2023-03-07T11:19:39;2.29;57.86
67192;HTU21D;54120;53.504;49.426;2023-03-07T11:22:43;2.70;55.81
67192;HTU21D;54120;53.504;49.426;2023-03-07T11:25:20;2.71;55.30
67192;HTU21D;54120;53.504;49.426;2023-03-07T11:27:55;2.56;55.81
67192;HTU21D;54120;53.504;49.426;2023-03-07T11:30:32;2.58;55.85
67192;HTU21D;54120;53.504;49.426;2023-03-07T11:41:33;2.56;56.04
67192;HTU21D;54120;53.504;49.426;2023-03-07T11:44:11;2.85;54.89
67192;HTU21D;54120;53.504;49.426;2023-03-07T12:00:22;3.55;52.88
67192;HTU21D;54120;53.504;49.426;2023-03-07T12:17:10;2.31;57.03
67192;HTU21D;54120;53.504;49.426;2023-03-07T12:22:46;2.66;56.42
67192;HTU21D;54120;53.504;49.426;2023-03-07T12:28:10;2.66;55.42
67192;HTU21D;54120;53.504;49.426;2023-03-07T12:36:25;3.09;53.58
67192;HTU21D;54120;53.504;49.426;2023-03-07T12:41:23;2.68;55.27
67192;HTU21D;54120;53.504;49.426;2023-03-07T12:43:57;2.57;55.71
67192;HTU21D;54120;53.504;49.426;2023-03-07T12:46:35;2.54;55.65
67192;HTU21D;54120;53.504;49.426;2023-03-07T12:51:46;2.41;55.32
67192;HTU21D;54120;53.504;49.426;2023-03-07T12:54:17;2.31;55.63
67192;HTU21D;54120;53.504;49.426;2023-03-07T12:57:03;2.14;56.61
67192;HTU21D;54120;53.504;49.426;2023-03-07T12:59:32;2.10;57.35
67192;HTU21D;54120;53.504;49.426;2023-03-07T13:04:32;1.91;57.21
67192;HTU21D;54120;53.504;49.426;2023-03-07T13:07:22;1.81;58.22
67192;HTU21D;54120;53.504;49.426;2023-03-07T13:09:50;1.69;57.96
67192;HTU21D;54120;53.504;49.426;2023-03-07T13:28:02;0.94;60.66
67192;HTU21D;54120;53.504;49.426;2023-03-07T13:30:32;0.86;62.41
67192;HTU21D;54120;53.504;49.426;2023-03-07T13:32:59;0.76;62.58
67192;HTU21D;54120;53.504;49.426;2023-03-07T13:53:21;0.17;65.24
67192;HTU21D;54120;53.504;49.426;2023-03-07T13:56:13;0.03;65.95
67192;HTU21D;54120;53.504;49.426;2023-03-07T13:59:19;-0.14;66.30
67192;HTU21D;54120;53.504;49.426;2023-03-07T14:01:47;-0.31;67.04
67192;HTU21D;54120;53.504;49.426;2023-03-07T14:04:29;-0.38;67.72
67192;HTU21D;54120;53.504;49.426;2023-03-07T14:07:02;-0.41;67.65
67192;HTU21D;54120;53.504;49.426;2023-03-07T14:09:43;-0.43;68.46
67192;HTU21D;54120;53.504;49.426;2023-03-07T14:28:49;-0.80;69.33
67192;HTU21D;54120;53.504;49.426;2023-03-07T14:31:25;-0.95;70.05
67192;HTU21D;54120;53.504;49.426;2023-03-07T14:33:53;-1.06;70.09
67192;HTU21D;54120;53.504;49.426;2023-03-07T14:36:28;-1.16;71.00
67192;HTU21D;54120;53.504;49.426;2023-03-07T14:52:24;-1.30;70.97
67192;HTU21D;54120;53.504;49.426;2023-03-07T14:54:52;-1.33;71.50
67192;HTU21D;54120;53.504;49.426;2023-03-07T14:57:42;-1.30;70.98
67192;HTU21D;54120;53.504;49.426;2023-03-07T15:05:17;-1.26;70.48
67192;HTU21D;54120;53.504;49.426;2023-03-07T15:07:43;-1.30;70.19
67192;HTU21D;54120;53.504;49.426;2023-03-07T15:10:19;-1.36;70.74
67192;HTU21D;54120;53.504;49.426;2023-03-07T15:12:49;-1.39;71.06
67192;HTU21D;54120;53.504;49.426;2023-03-07T15:15:42;-1.43;70.82
67192;HTU21D;54120;53.504;49.426;2023-03-07T15:20:42;-1.48;71.02
67192;HTU21D;54120;53.504;49.426;2023-03-07T15:23:20;-1.58;71.05
67192;HTU21D;54120;53.504;49.426;2023-03-07T15:25:47;-1.68;71.33
67192;HTU21D;54120;53.504;49.426;2023-03-07T15:28:26;-1.76;71.54
67192;HTU21D;54120;53.504;49.426;2023-03-07T15:30:53;-1.86;71.86
67192;HTU21D;54120;53.504;49.426;2023-03-07T15:33:24;-1.87;72.10
67192;HTU21D;54120;53.504;49.426;2023-03-07T15:38:49;-1.90;71.66
67192;HTU21D;54120;53.504;49.426;2023-03-07T15:46:42;-2.18;72.48
67192;HTU21D;54120;53.504;49.426;2023-03-07T15:51:58;-2.19;72.81
67192;HTU21D;54120;53.504;49.426;2023-03-07T15:54:35;-2.22;72.29
67192;HTU21D;54120;53.504;49.426;2023-03-07T15:57:05;-2.29;72.20
67192;HTU21D;54120;53.504;49.426;2023-03-07T15:59:37;-2.38;72.54
67192;HTU21D;54120;53.504;49.426;2023-03-07T16:02:39;-2.43;72.86
67192;HTU21D;54120;53.504;49.426;2023-03-07T16:05:26;-2.38;72.68
67192;HTU21D;54120;53.504;49.426;2023-03-07T16:07:56;-2.44;72.90
67192;HTU21D;54120;53.504;49.426;2023-03-07T16:10:28;-2.50;72.97
67192;HTU21D;54120;53.504;49.426;2023-03-07T16:12:55;-2.58;73.81
67192;HTU21D;54120;53.504;49.426;2023-03-07T16:15:22;-2.63;73.32
67192;HTU21D;54120;53.504;49.426;2023-03-07T16:17:50;-2.62;73.57
67192;HTU21D;54120;53.504;49.426;2023-03-07T16:20:21;-2.69;73.48
67192;HTU21D;54120;53.504;49.426;2023-03-07T16:22:47;-2.74;73.31
67192;HTU21D;54120;53.504;49.426;2023-03-07T16:25:14;-2.77;73.70
67192;HTU21D;54120;53.504;49.426;2023-03-07T16:27:47;-2.76;73.39
67192;HTU21D;54120;53.504;49.426;2023-03-07T16:30:17;-2.80;73.65
67192;HTU21D;54120;53.504;49.426;2023-03-07T16:32:43;-2.77;73.32
67192;HTU21D;54120;53.504;49.426;2023-03-07T16:35:21;-2.80;73.96
67192;HTU21D;54120;53.504;49.426;2023-03-07T16:37:49;-2.84;73.82
67192;HTU21D;54120;53.504;49.426;2023-03-07T16:40:16;-2.92;73.64
67192;HTU21D;54120;53.504;49.426;2023-03-07T16:42:44;-3.03;73.96
67192;HTU21D;54120;53.504;49.426;2023-03-07T16:45:30;-3.12;74.73
67192;HTU21D;54120;53.504;49.426;2023-03-07T16:47:59;-3.12;75.05
67192;HTU21D;54120;53.504;49.426;2023-03-07T16:50:30;-3.08;74.48
67192;HTU21D;54120;53.504;49.426;2023-03-07T16:52:57;-3.09;74.23
67192;HTU21D;54120;53.504;49.426;2023-03-07T16:55:23;-3.09;74.77
67192;HTU21D;54120;53.504;49.426;2023-03-07T16:57:56;-3.08;74.11
67192;HTU21D;54120;53.504;49.426;2023-03-07T17:00:24;-3.03;73.66
67192;HTU21D;54120;53.504;49.426;2023-03-07T17:02:52;-2.98;72.89
67192;HTU21D;54120;53.504;49.426;2023-03-07T17:05:24;-3.09;73.71
67192;HTU21D;54120;53.504;49.426;2023-03-07T17:07:52;-3.11;73.49
67192;HTU21D;54120;53.504;49.426;2023-03-07T17:10:19;-3.15;73.60
67192;HTU21D;54120;53.504;49.426;2023-03-07T17:12:46;-3.18;73.54
67192;HTU21D;54120;53.504;49.426;2023-03-07T17:15:16;-3.20;73.77
67192;HTU21D;54120;53.504;49.426;2023-03-07T17:17:43;-3.22;73.73
67192;HTU21D;54120;53.504;49.426;2023-03-07T17:20:16;-3.27;73.70
67192;HTU21D;54120;53.504;49.426;2023-03-07T17:22:45;-3.28;73.80
67192;HTU21D;54120;53.504;49.426;2023-03-07T17:25:11;-3.34;73.74
67192;HTU21D;54120;53.504;49.426;2023-03-07T17:28:09;-3.28;73.74
67192;HTU21D;54120;53.504;49.426;2023-03-07T17:30:37;-3.35;73.56
67192;HTU21D;54120;53.504;49.426;2023-03-07T17:33:09;-3.40;73.97
67192;HTU21D;54120;53.504;49.426;2023-03-07T17:35:35;-3.41;74.28
67192;HTU21D;54120;53.504;49.426;2023-03-07T17:38:02;-3.35;74.22
67192;HTU21D;54120;53.504;49.426;2023-03-07T17:40:28;-3.42;74.38
67192;HTU21D;54120;53.504;49.426;2023-03-07T17:42:54;-3.48;74.54
67192;HTU21D;54120;53.504;49.426;2023-03-07T17:45:23;-3.50;74.87
67192;HTU21D;54120;53.504;49.426;2023-03-07T17:47:51;-3.50;74.89
67192;HTU21D;54120;53.504;49.426;2023-03-07T17:50:20;-3.58;75.27
67192;HTU21D;54120;53.504;49.426;2023-03-07T17:52:50;-3.64;75.49
67192;HTU21D;54120;53.504;49.426;2023-03-07T17:55:17;-3.67;75.86
67192;HTU21D;54120;53.504;49.426;2023-03-07T17:57:45;-3.74;76.16
67192;HTU21D;54120;53.504;49.426;2023-03-07T18:00:11;-3.72;76.41
67192;HTU21D;54120;53.504;49.426;2023-03-07T18:02:40;-3.77;76.32
67192;HTU21D;54120;53.504;49.426;2023-03-07T18:05:09;-3.83;76.69